createdAt,value
2018-12-03T00:00:24.384Z,44.33
2018-12-03T00:03:08.419Z,38.33
2018-12-03T00:05:36.803Z,38.17
2018-12-03T00:08:05.389Z,35.63
2018-12-03T00:10:33.816Z,33.83
2018-12-03T00:13:02.148Z,40.63
2018-12-03T00:15:30.651Z,42.00
2018-12-03T00:17:59.016Z,38.83
2018-12-03T00:20:27.336Z,42.80
2018-12-03T00:22:55.715Z,37.70
2018-12-03T00:25:24.037Z,35.93
2018-12-03T00:27:53.037Z,38.63
2018-12-03T00:30:21.469Z,34.17
2018-12-03T00:32:50.268Z,38.93
2018-12-03T00:35:18.696Z,38.50
2018-12-03T00:37:47.040Z,36.53
2018-12-03T00:40:15.437Z,42.13
2018-12-03T00:42:43.770Z,46.60
2018-12-03T00:45:12.121Z,39.77
2018-12-03T00:47:40.524Z,46.40
2018-12-03T00:50:08.923Z,33.97
2018-12-03T00:52:37.237Z,32.80
2018-12-03T00:55:06.904Z,36.70
2018-12-03T00:57:35.224Z,34.37
2018-12-03T01:00:05.122Z,35.03
2018-12-03T01:02:33.529Z,31.13
2018-12-03T01:05:01.874Z,33.20
2018-12-03T01:07:30.268Z,33.50
2018-12-03T01:09:58.599Z,32.27
2018-12-03T01:12:26.940Z,30.57
2018-12-03T01:14:55.284Z,29.97
2018-12-03T01:17:23.616Z,29.70
2018-12-03T01:19:51.927Z,40.00
2018-12-03T01:22:20.303Z,34.10
2018-12-03T01:24:48.627Z,34.17
2018-12-03T01:27:17.001Z,33.33
2018-12-03T01:29:45.360Z,41.77
2018-12-03T01:32:13.665Z,38.00
2018-12-03T01:34:42.000Z,33.63
2018-12-03T01:37:10.354Z,37.37
2018-12-03T01:39:38.648Z,40.40
2018-12-03T01:42:07.000Z,44.10
2018-12-03T01:44:35.360Z,38.43
2018-12-03T01:47:03.684Z,34.00
2018-12-03T01:49:32.045Z,35.53
2018-12-03T01:52:00.756Z,33.10
2018-12-03T01:54:29.067Z,34.63
2018-12-03T01:56:57.377Z,34.57
2018-12-03T01:59:25.751Z,32.13
2018-12-03T02:01:54.116Z,33.47
2018-12-03T02:04:22.436Z,32.27
2018-12-03T02:06:50.875Z,31.27
2018-12-03T02:09:19.208Z,32.27
2018-12-03T02:11:47.652Z,31.73
2018-12-03T02:14:15.971Z,33.27
2018-12-03T02:16:44.340Z,33.63
2018-12-03T02:19:12.695Z,37.40
2018-12-03T02:21:41.035Z,37.93
2018-12-03T02:24:09.476Z,38.63
2018-12-03T02:26:37.774Z,43.37
2018-12-03T02:29:06.123Z,43.27
2018-12-03T02:31:34.476Z,39.73
2018-12-03T02:34:02.864Z,43.63
2018-12-03T02:36:31.217Z,44.90
2018-12-03T02:38:59.571Z,38.97
2018-12-03T02:41:27.891Z,36.07
2018-12-03T02:43:56.223Z,38.63
2018-12-03T02:46:24.569Z,40.00
2018-12-03T02:48:52.864Z,38.73
2018-12-03T02:51:21.197Z,40.80
2018-12-03T02:53:49.512Z,40.50
2018-12-03T02:56:17.907Z,32.43
2018-12-03T02:58:46.222Z,34.73
2018-12-03T03:01:14.592Z,34.67
2018-12-03T03:03:42.926Z,34.27
2018-12-03T03:06:11.260Z,46.07
2018-12-03T03:08:39.552Z,32.17
2018-12-03T03:11:07.881Z,37.17
2018-12-03T03:13:36.272Z,33.97
2018-12-03T03:16:04.749Z,32.67
2018-12-03T03:18:33.064Z,31.27
2018-12-03T03:21:01.411Z,29.43
2018-12-03T03:23:32.460Z,35.37
2018-12-03T03:26:00.795Z,32.67
2018-12-03T03:28:29.147Z,35.33
2018-12-03T03:30:57.483Z,35.00
2018-12-03T03:33:25.786Z,35.83
2018-12-03T03:35:54.103Z,34.47
2018-12-03T03:38:22.432Z,32.87
2018-12-03T03:40:50.813Z,34.80
2018-12-03T03:43:19.123Z,32.50
2018-12-03T03:45:47.500Z,34.70
2018-12-03T03:48:15.852Z,34.70
2018-12-03T03:50:44.189Z,39.10
2018-12-03T03:53:12.579Z,42.30
2018-12-03T03:55:40.880Z,42.23
2018-12-03T03:58:09.276Z,44.13
2018-12-03T04:00:37.624Z,42.07
2018-12-03T04:03:06.005Z,42.53
2018-12-03T04:05:34.373Z,38.00
2018-12-03T04:08:02.700Z,43.17
2018-12-03T04:10:31.009Z,37.17
2018-12-03T04:12:59.353Z,41.97
2018-12-03T04:15:27.677Z,39.27
2018-12-03T04:17:57.533Z,39.93
2018-12-03T04:20:25.842Z,42.77
2018-12-03T04:22:54.924Z,46.80
2018-12-03T04:25:23.301Z,41.87
2018-12-03T04:27:52.648Z,41.53
2018-12-03T04:30:21.748Z,38.03
2018-12-03T04:32:50.803Z,43.43
2018-12-03T04:35:19.126Z,41.07
2018-12-03T04:37:47.469Z,40.00
2018-12-03T04:40:16.506Z,40.70
2018-12-03T04:42:44.860Z,40.70
2018-12-03T04:45:14.387Z,38.77
2018-12-03T04:47:42.775Z,44.50
2018-12-03T04:50:13.143Z,42.33
2018-12-03T04:52:41.506Z,38.67
2018-12-03T04:55:10.315Z,43.07
2018-12-03T04:57:38.770Z,41.47
2018-12-03T05:00:11.694Z,37.83
2018-12-03T05:02:40.089Z,39.33
2018-12-03T05:05:08.973Z,43.90
2018-12-03T05:07:37.284Z,38.73
2018-12-03T05:10:11.028Z,38.33
2018-12-03T05:12:39.392Z,41.17
2018-12-03T05:15:11.724Z,39.27
2018-12-03T05:17:40.350Z,38.17
2018-12-03T05:20:11.752Z,38.07
2018-12-03T05:22:40.084Z,37.13
2018-12-03T05:25:09.543Z,36.80
2018-12-03T05:27:37.918Z,37.27
2018-12-03T05:30:09.536Z,41.37
2018-12-03T05:32:38.267Z,41.47
2018-12-03T05:35:10.948Z,40.20
2018-12-03T05:37:39.362Z,39.30
2018-12-03T05:40:15.890Z,36.93
2018-12-03T05:42:44.392Z,43.37
2018-12-03T05:45:12.748Z,41.20
2018-12-03T05:47:41.066Z,47.43
2018-12-03T05:50:11.616Z,41.97
2018-12-03T05:52:39.967Z,36.93
2018-12-03T05:55:09.600Z,36.93
2018-12-03T05:57:37.951Z,34.17
2018-12-03T06:00:16.464Z,36.33
2018-12-03T06:02:44.868Z,37.27
2018-12-03T06:05:13.745Z,37.10
2018-12-03T06:07:42.132Z,39.57
2018-12-03T06:10:13.516Z,39.53
2018-12-03T06:12:41.977Z,37.13
2018-12-03T06:15:11.495Z,36.43
2018-12-03T06:17:39.981Z,32.00
2018-12-03T06:20:11.700Z,34.27
2018-12-03T06:22:40.041Z,45.03
2018-12-03T06:25:10.745Z,38.77
2018-12-03T06:27:39.129Z,37.83
2018-12-03T06:30:19.407Z,37.80
2018-12-03T06:32:47.772Z,39.27
2018-12-03T06:35:16.796Z,38.67
2018-12-03T06:37:45.254Z,41.87
2018-12-03T06:40:20.415Z,44.70
2018-12-03T06:42:48.782Z,43.73
2018-12-03T06:45:18.318Z,45.97
2018-12-03T06:47:51.281Z,38.80
2018-12-03T06:50:20.429Z,46.53
2018-12-03T06:52:48.816Z,42.03
2018-12-03T06:55:17.153Z,43.13
2018-12-03T06:57:45.527Z,39.17
2018-12-03T07:00:15.088Z,40.53
2018-12-03T07:02:43.754Z,41.40
2018-12-03T07:05:12.220Z,42.00
2018-12-03T07:07:41.226Z,36.93
2018-12-03T07:10:12.932Z,39.33
2018-12-03T07:12:41.518Z,37.80
2018-12-03T07:15:11.344Z,33.83
2018-12-03T07:17:39.734Z,32.13
2018-12-03T07:20:11.260Z,36.73
2018-12-03T07:22:39.827Z,36.70
2018-12-03T07:25:09.357Z,37.17
2018-12-03T07:27:37.793Z,37.27
2018-12-03T07:30:15.403Z,40.13
2018-12-03T07:32:44.340Z,29.73
2018-12-03T07:35:12.779Z,30.07
2018-12-03T07:37:41.203Z,25.07
2018-12-03T07:40:10.681Z,31.50
2018-12-03T07:42:39.399Z,31.20
2018-12-03T07:45:13.651Z,31.33
2018-12-03T07:47:42.031Z,35.70
2018-12-03T07:50:11.533Z,27.30
2018-12-03T07:52:40.081Z,28.47
2018-12-03T07:55:11.307Z,29.90
2018-12-03T07:57:41.000Z,36.47
2018-12-03T08:00:13.076Z,38.30
2018-12-03T08:02:41.494Z,36.20
2018-12-03T08:05:10.548Z,23.87
2018-12-03T08:07:38.986Z,34.43
2018-12-03T08:10:11.232Z,32.43
2018-12-03T08:12:39.734Z,37.80
2018-12-03T08:15:24.580Z,32.10
2018-12-03T08:17:56.602Z,29.67
2018-12-03T08:20:27.115Z,28.27
2018-12-03T08:23:02.383Z,35.57
2018-12-03T08:25:30.964Z,34.17
2018-12-03T08:27:59.472Z,34.27
2018-12-03T08:30:27.805Z,26.93
2018-12-03T08:32:56.407Z,28.50
2018-12-03T08:35:24.876Z,29.50
2018-12-03T08:37:53.282Z,29.97
2018-12-03T08:40:21.623Z,30.73
2018-12-03T08:42:56.548Z,35.50
2018-12-03T08:45:25.512Z,32.40
2018-12-03T08:47:54.080Z,29.27
2018-12-03T08:50:25.396Z,32.10
2018-12-03T08:52:54.280Z,31.37
2018-12-03T08:55:29.059Z,31.43
2018-12-03T08:57:57.399Z,30.73
2018-12-03T09:00:27.921Z,32.40
2018-12-03T09:03:01.722Z,29.20
2018-12-03T09:05:34.380Z,32.60
2018-12-03T09:08:02.764Z,34.07
2018-12-03T09:10:31.123Z,33.87
2018-12-03T09:13:06.331Z,34.90
2018-12-03T09:15:34.684Z,31.13
2018-12-03T09:18:03.101Z,34.03
2018-12-03T09:20:31.768Z,32.37
2018-12-03T09:23:00.093Z,34.47
2018-12-03T09:25:28.463Z,34.97
2018-12-03T09:27:56.833Z,41.13
2018-12-03T09:30:27.720Z,32.00
2018-12-03T09:32:53.583Z,34.03
2018-12-03T09:35:21.945Z,36.93
2018-12-03T09:37:50.272Z,29.27
2018-12-03T09:40:20.248Z,31.60
2018-12-03T09:42:48.584Z,37.57
2018-12-03T09:45:17.851Z,41.10
2018-12-03T09:47:46.571Z,35.60
2018-12-03T09:50:16.864Z,39.47
2018-12-03T09:52:45.361Z,31.57
2018-12-03T09:55:18.999Z,34.37
2018-12-03T09:58:05.626Z,38.87
2018-12-03T10:00:34.012Z,42.90
2018-12-03T10:03:04.388Z,37.00
2018-12-03T10:05:39.428Z,49.83
2018-12-03T10:08:07.740Z,39.50
2018-12-03T10:10:36.058Z,38.03
2018-12-03T10:13:07.447Z,45.47
2018-12-03T10:15:35.803Z,48.87
2018-12-03T10:18:04.473Z,50.10
2018-12-03T10:20:32.817Z,44.93
2018-12-03T10:23:01.220Z,45.13
2018-12-03T10:25:29.640Z,44.20
2018-12-03T10:28:03.045Z,44.33
2018-12-03T10:30:31.456Z,61.33
2018-12-03T10:32:59.800Z,44.13
2018-12-03T10:35:34.683Z,47.73
2018-12-03T10:38:08.930Z,45.87
2018-12-03T10:40:41.914Z,47.47
2018-12-03T10:43:11.189Z,45.67
2018-12-03T10:45:39.900Z,42.27
2018-12-03T10:48:08.344Z,41.87
2018-12-03T10:50:36.752Z,45.33
2018-12-03T10:53:05.476Z,37.13
2018-12-03T10:55:38.636Z,42.40
2018-12-03T10:58:07.043Z,40.23
2018-12-03T11:00:40.888Z,44.27
2018-12-03T11:03:13.928Z,43.90
2018-12-03T11:05:48.164Z,37.60
2018-12-03T11:08:22.421Z,50.57
2018-12-03T11:10:52.461Z,40.73
2018-12-03T11:13:21.004Z,43.67
2018-12-03T11:15:49.418Z,59.57
2018-12-03T11:18:18.356Z,39.27
2018-12-03T11:20:46.684Z,35.93
2018-12-03T11:23:21.837Z,43.70
2018-12-03T11:25:50.526Z,41.60
2018-12-03T11:28:19.379Z,41.03
2018-12-03T11:30:51.612Z,42.07
2018-12-03T11:33:25.980Z,44.87
2018-12-03T11:35:56.032Z,37.00
2018-12-03T11:40:34.801Z,39.73
2018-12-03T11:43:03.189Z,39.80
2018-12-03T11:45:31.565Z,39.13
2018-12-03T11:47:59.948Z,33.73
2018-12-03T11:50:28.394Z,32.87
2018-12-03T11:52:56.745Z,33.73
2018-12-03T11:55:25.072Z,38.83
2018-12-03T11:57:53.383Z,33.00
2018-12-03T12:00:21.801Z,28.37
2018-12-03T12:02:50.246Z,33.73
2018-12-03T12:05:24.740Z,34.87
2018-12-03T12:07:53.301Z,36.70
2018-12-03T12:10:21.713Z,29.00
2018-12-03T12:12:50.285Z,39.10
2018-12-03T12:15:18.694Z,29.40
2018-12-03T12:17:47.544Z,36.13
2018-12-03T12:20:16.120Z,32.80
2018-12-03T12:22:44.657Z,32.03
2018-12-03T12:25:13.422Z,38.00
2018-12-03T12:27:44.034Z,38.87
2018-12-03T12:30:14.791Z,36.80
2018-12-03T12:32:43.284Z,28.73
2018-12-03T12:35:11.932Z,32.20
2018-12-03T12:37:40.340Z,40.97
2018-12-03T12:40:11.157Z,34.60
2018-12-03T12:42:40.188Z,37.93
2018-12-03T12:45:15.928Z,39.13
2018-12-03T12:47:44.564Z,33.47
2018-12-03T12:50:16.065Z,40.27
2018-12-03T12:52:44.399Z,40.30
2018-12-03T12:55:12.745Z,45.23
2018-12-03T12:57:41.123Z,32.27
2018-12-03T13:00:13.282Z,35.53
2018-12-03T13:02:41.941Z,34.03
2018-12-03T13:05:10.420Z,27.43
2018-12-03T13:07:38.868Z,30.43
2018-12-03T13:10:10.578Z,29.10
2018-12-03T13:12:39.119Z,27.10
2018-12-03T13:15:11.466Z,36.07
2018-12-03T13:17:40.926Z,31.13
2018-12-03T13:20:11.364Z,35.03
2018-12-03T13:22:39.768Z,32.43
2018-12-03T13:25:10.067Z,32.07
2018-12-03T13:27:38.528Z,32.63
2018-12-03T13:30:11.057Z,37.43
2018-12-03T13:32:39.532Z,38.67
2018-12-03T13:35:09.628Z,40.00
2018-12-03T13:37:38.161Z,37.23
2018-12-03T13:40:11.507Z,42.77
2018-12-03T13:42:39.936Z,42.93
2018-12-03T13:45:16.878Z,46.70
2018-12-03T13:47:45.666Z,41.40
2018-12-03T13:50:15.220Z,49.63
2018-12-03T13:52:43.896Z,49.53
2018-12-03T13:55:17.769Z,47.70
2018-12-03T13:57:46.517Z,54.40
2018-12-03T14:00:22.815Z,48.93
2018-12-03T14:02:57.684Z,49.23
2018-12-03T14:05:26.228Z,47.40
2018-12-03T14:07:57.729Z,52.10
2018-12-03T14:10:35.992Z,48.23
2018-12-03T14:13:14.479Z,55.27
2018-12-03T14:15:53.888Z,42.07
2018-12-03T14:18:29.173Z,43.37
2018-12-03T14:21:01.692Z,44.23
2018-12-03T14:23:33.037Z,46.17
2018-12-03T14:26:01.440Z,45.30
2018-12-03T14:28:30.126Z,41.10
2018-12-03T14:30:58.532Z,47.10
2018-12-03T14:33:26.893Z,37.80
2018-12-03T14:35:55.311Z,39.53
2018-12-03T14:38:23.713Z,32.73
2018-12-03T14:40:52.507Z,39.13
2018-12-03T14:43:21.168Z,47.53
2018-12-03T14:45:49.584Z,34.17
2018-12-03T14:48:17.901Z,37.87
2018-12-03T14:50:46.228Z,42.87
2018-12-03T14:53:15.843Z,38.87
2018-12-03T14:55:44.192Z,35.60
2018-12-03T14:58:12.744Z,32.53
2018-12-03T15:00:41.121Z,31.50
2018-12-03T15:03:09.448Z,37.30
2018-12-03T15:05:37.780Z,36.37
2018-12-03T15:08:06.212Z,26.40
2018-12-03T15:10:34.516Z,29.83
2018-12-03T15:13:02.840Z,23.70
2018-12-03T15:15:31.441Z,23.00
2018-12-03T15:17:59.792Z,30.20
2018-12-03T15:20:28.210Z,25.10
2018-12-03T15:22:56.599Z,25.70
2018-12-03T15:25:24.944Z,26.97
2018-12-03T15:27:53.303Z,28.60
2018-12-03T15:30:21.736Z,31.00
2018-12-03T15:32:50.081Z,24.93
2018-12-03T15:35:18.520Z,25.63
2018-12-03T15:37:46.909Z,26.87
2018-12-03T15:40:16.233Z,28.23
2018-12-03T15:42:44.576Z,35.30
2018-12-03T15:45:15.045Z,30.30
2018-12-03T15:47:43.486Z,22.43
2018-12-03T15:50:11.850Z,30.10
2018-12-03T15:52:40.204Z,28.53
2018-12-03T15:55:08.810Z,36.53
2018-12-03T15:57:37.357Z,58.77
2018-12-03T16:00:08.493Z,67.03
2018-12-03T16:02:36.868Z,66.70
2018-12-03T16:05:08.101Z,68.67
2018-12-03T16:07:36.501Z,74.43
2018-12-03T16:10:07.745Z,78.00
2018-12-03T16:12:37.915Z,80.87
2018-12-03T16:15:07.420Z,73.73
2018-12-03T16:17:35.759Z,78.60
2018-12-03T16:20:05.172Z,75.33
2018-12-03T16:22:33.504Z,76.30
2018-12-03T16:25:01.834Z,71.33
2018-12-03T16:27:30.555Z,81.13
2018-12-03T16:29:58.952Z,70.03
2018-12-03T16:32:27.504Z,74.40
2018-12-03T16:34:55.941Z,73.57
2018-12-03T16:37:24.304Z,75.97
2018-12-03T16:39:52.620Z,80.13
2018-12-03T16:42:20.993Z,79.50
2018-12-03T16:44:49.441Z,81.40
2018-12-03T16:47:17.800Z,70.80
2018-12-03T16:49:46.102Z,73.00
2018-12-03T16:52:14.472Z,75.87
2018-12-03T16:54:42.808Z,84.57
2018-12-03T16:57:11.151Z,70.83
2018-12-03T16:59:39.496Z,73.23
2018-12-03T17:02:07.848Z,78.10
2018-12-03T17:04:36.184Z,76.97
2018-12-03T17:07:04.556Z,84.43
2018-12-03T17:09:33.348Z,83.00
2018-12-03T17:12:01.780Z,89.87
2018-12-03T17:14:30.175Z,96.63
2018-12-03T17:16:58.564Z,89.17
2018-12-03T17:19:27.043Z,87.63
2018-12-03T17:22:20.136Z,85.13
2018-12-03T17:24:48.988Z,84.97
2018-12-03T17:27:17.334Z,86.60
2018-12-03T17:29:46.186Z,90.73
2018-12-03T17:32:14.615Z,82.53
2018-12-03T17:34:48.734Z,74.63
2018-12-03T17:37:11.477Z,76.30
2018-12-03T17:39:39.861Z,79.70
2018-12-03T17:42:08.768Z,82.87
2018-12-03T17:44:37.240Z,86.63
2018-12-03T17:47:05.564Z,84.57
2018-12-03T17:49:33.944Z,83.43
2018-12-03T17:52:02.474Z,82.83
2018-12-03T17:54:30.839Z,87.03
2018-12-03T17:56:59.240Z,85.30
2018-12-03T17:59:27.666Z,88.83
2018-12-03T18:01:56.070Z,87.87
2018-12-03T18:04:24.463Z,86.13
2018-12-03T18:06:52.888Z,88.87
2018-12-03T18:09:21.348Z,84.53
2018-12-03T18:12:26.168Z,84.80
2018-12-03T18:14:54.641Z,93.37
2018-12-03T18:17:23.163Z,92.63
2018-12-03T18:19:51.906Z,94.43
2018-12-03T18:22:20.403Z,96.63
2018-12-03T18:24:48.792Z,98.47
2018-12-03T18:27:17.174Z,95.40
2018-12-03T18:29:45.575Z,98.03
2018-12-03T18:32:14.129Z,93.87
2018-12-03T18:34:42.607Z,93.77
2018-12-03T18:37:10.993Z,94.03
2018-12-03T18:39:39.387Z,94.93
2018-12-03T18:42:07.681Z,79.43
2018-12-03T18:44:36.084Z,82.73
2018-12-03T18:47:04.469Z,91.83
2018-12-03T18:49:35.633Z,87.43
2018-12-03T18:52:08.246Z,77.60
2018-12-03T18:54:36.936Z,87.23
2018-12-03T18:57:05.416Z,93.57
2018-12-03T18:59:34.036Z,77.47
2018-12-03T19:02:02.589Z,82.97
2018-12-03T19:04:30.992Z,80.20
2018-12-03T19:06:59.438Z,75.40
2018-12-03T19:09:29.696Z,76.07
2018-12-03T19:11:58.112Z,70.53
2018-12-03T19:14:26.525Z,69.20
2018-12-03T19:16:54.983Z,68.00
2018-12-03T19:19:23.381Z,75.97
2018-12-03T19:21:51.756Z,68.23
2018-12-03T19:24:20.108Z,62.30
2018-12-03T19:26:48.452Z,59.23
2018-12-03T19:29:16.970Z,74.10
2018-12-03T19:31:47.400Z,67.57
2018-12-03T19:34:17.826Z,61.57
2018-12-03T19:37:03.097Z,64.10
2018-12-03T19:39:31.651Z,59.50
2018-12-03T19:42:00.014Z,67.20
2018-12-03T19:44:28.320Z,63.63
2018-12-03T19:46:56.940Z,67.80
2018-12-03T19:49:25.905Z,68.67
2018-12-03T19:51:55.383Z,76.27
2018-12-03T19:54:23.858Z,76.50
2018-12-03T19:56:53.382Z,70.93
2018-12-03T19:59:23.419Z,73.30
2018-12-03T20:01:52.089Z,80.07
2018-12-03T20:04:26.478Z,68.73
2018-12-03T20:06:55.134Z,60.73
2018-12-03T20:09:23.777Z,69.23
2018-12-03T20:11:52.156Z,75.80
2018-12-03T20:14:20.573Z,73.63
2018-12-03T20:16:48.986Z,69.27
2018-12-03T20:19:18.346Z,77.43
2018-12-03T20:21:48.004Z,74.13
2018-12-03T20:24:17.705Z,73.20
2018-12-03T20:26:53.116Z,76.57
2018-12-03T20:29:39.318Z,77.17
2018-12-03T20:32:20.295Z,60.97
2018-12-03T20:35:01.081Z,70.80
2018-12-03T20:37:43.763Z,75.27
2018-12-03T20:40:25.429Z,71.37
2018-12-03T20:42:59.266Z,73.33
2018-12-03T20:47:42.408Z,72.97
2018-12-03T20:50:35.068Z,72.03
2018-12-03T20:53:03.454Z,68.33
2018-12-03T20:55:36.596Z,78.80
2018-12-03T20:58:05.077Z,76.70
2018-12-03T21:00:33.542Z,77.00
2018-12-03T21:03:02.931Z,76.17
2018-12-03T21:05:31.377Z,80.03
2018-12-03T21:07:59.773Z,80.63
2018-12-03T21:10:28.177Z,76.63
2018-12-03T21:12:56.630Z,67.90
2018-12-03T21:15:25.054Z,74.40
2018-12-03T21:17:53.409Z,71.40
2018-12-03T21:20:33.934Z,69.07
2018-12-03T21:23:02.351Z,80.90
2018-12-03T21:25:30.821Z,83.07
2018-12-03T21:27:59.249Z,80.87
2018-12-03T21:30:27.665Z,75.03
2018-12-03T21:32:56.126Z,82.07
2018-12-03T21:35:24.473Z,80.50
2018-12-03T21:37:53.392Z,76.83
2018-12-03T21:40:21.800Z,69.60
2018-12-03T21:42:50.272Z,82.02
2018-12-03T21:45:18.583Z,75.70
2018-12-03T21:47:47.064Z,72.83
2018-12-03T21:50:15.416Z,78.00
2018-12-03T21:52:43.730Z,67.57
2018-12-03T21:55:13.176Z,72.47
2018-12-03T21:57:41.814Z,76.73
2018-12-03T22:00:14.832Z,86.07
2018-12-03T22:02:43.180Z,81.00
2018-12-03T22:05:11.546Z,84.33
2018-12-03T22:07:39.885Z,76.83
2018-12-03T22:10:08.488Z,79.80
2018-12-03T22:12:36.944Z,76.77
2018-12-03T22:15:06.654Z,69.67
2018-12-03T22:17:35.063Z,72.33
2018-12-03T22:20:04.525Z,84.13
2018-12-03T22:22:32.916Z,79.20
2018-12-03T22:25:01.296Z,82.70
2018-12-03T22:27:29.685Z,72.33
2018-12-03T22:30:02.931Z,74.00
2018-12-03T22:32:32.358Z,78.23
2018-12-03T22:35:00.836Z,79.90
2018-12-03T22:37:29.213Z,76.57
2018-12-03T22:39:57.545Z,83.57
2018-12-03T22:42:25.996Z,78.33
2018-12-03T22:44:54.340Z,75.20
2018-12-03T22:47:22.684Z,81.87
2018-12-03T22:49:51.012Z,74.40
2018-12-03T22:52:19.353Z,79.63
2018-12-03T22:54:47.652Z,84.60
2018-12-03T22:57:15.976Z,77.53
2018-12-03T22:59:44.260Z,81.17
2018-12-03T23:02:12.564Z,82.63
2018-12-03T23:04:41.132Z,87.67
2018-12-03T23:07:09.472Z,95.30
2018-12-03T23:09:37.768Z,85.03
2018-12-03T23:12:06.348Z,78.50
2018-12-03T23:14:34.671Z,84.23
2018-12-03T23:17:02.980Z,76.07
2018-12-03T23:19:31.324Z,85.57
2018-12-03T23:21:59.615Z,73.80
2018-12-03T23:24:28.012Z,85.27
2018-12-03T23:26:56.322Z,85.50
2018-12-03T23:29:24.641Z,89.73
2018-12-03T23:31:54.017Z,84.00
2018-12-03T23:34:22.298Z,86.60
2018-12-03T23:36:50.928Z,79.47
2018-12-03T23:39:19.266Z,78.03
2018-12-03T23:41:47.685Z,81.50
2018-12-03T23:44:16.051Z,75.40
2018-12-03T23:46:44.694Z,83.47
2018-12-03T23:49:12.960Z,80.77
2018-12-03T23:51:41.268Z,78.47
2018-12-03T23:54:09.845Z,78.20
2018-12-03T23:56:38.136Z,73.80
2018-12-03T23:59:06.468Z,73.30
